createdAt,value
2024-03-05T00:01:05.442Z,100828.31
2024-03-05T00:03:33.665Z,100822.31
2024-03-05T00:06:01.531Z,100819.75
2024-03-05T00:08:29.514Z,100816.28
2024-03-05T00:11:00.593Z,100812.00
2024-03-05T00:13:28.643Z,100811.13
2024-03-05T00:15:56.540Z,100805.16
2024-03-05T00:18:24.875Z,100808.56
2024-03-05T00:20:52.786Z,100810.25
2024-03-05T00:23:21.059Z,100805.12
2024-03-05T00:25:49.289Z,100787.13
2024-03-05T00:28:17.174Z,100788.00
2024-03-05T00:30:46.773Z,100790.56
2024-03-05T00:33:15.184Z,100753.84
2024-03-05T00:35:43.630Z,100784.56
2024-03-05T00:38:18.422Z,100780.28
2024-03-05T00:40:53.142Z,100776.00
2024-03-05T00:43:21.005Z,100787.13
2024-03-05T00:45:48.962Z,100772.59
2024-03-05T00:48:17.600Z,100774.25
2024-03-05T00:50:45.582Z,100775.16
2024-03-05T00:53:15.136Z,100779.44
2024-03-05T00:55:43.901Z,100776.00
2024-03-05T00:58:13.938Z,100782.00
2024-03-05T01:00:42.100Z,100782.87
2024-03-05T01:03:12.034Z,100780.31
2024-03-05T01:05:39.808Z,100771.72
2024-03-05T01:08:08.075Z,100781.19
2024-03-05T01:10:36.418Z,100770.03
2024-03-05T01:13:04.427Z,100774.38
2024-03-05T01:15:32.340Z,100780.44
2024-03-05T01:18:00.788Z,100776.16
2024-03-05T01:20:28.871Z,100774.59
2024-03-05T01:22:56.945Z,100771.12
2024-03-05T01:25:25.973Z,100766.84
2024-03-05T01:27:54.206Z,100774.56
2024-03-05T01:30:23.757Z,100781.44
2024-03-05T01:32:53.657Z,100772.87
2024-03-05T01:35:22.869Z,100769.41
2024-03-05T01:37:51.337Z,100774.47
2024-03-05T01:40:21.157Z,100773.69
2024-03-05T01:42:50.340Z,100769.44
2024-03-05T01:45:20.309Z,100769.37
2024-03-05T01:47:50.587Z,100777.91
2024-03-05T01:50:19.068Z,100777.03
2024-03-05T01:52:47.263Z,100782.87
2024-03-05T01:55:17.126Z,100768.16
2024-03-05T01:57:47.587Z,100771.72
2024-03-05T02:00:17.451Z,100781.44
2024-03-05T02:02:46.058Z,100787.84
2024-03-05T02:05:15.374Z,100774.22
2024-03-05T02:07:45.374Z,100780.78
2024-03-05T02:10:13.642Z,100769.44
2024-03-05T02:12:44.262Z,100776.34
2024-03-05T02:15:12.865Z,100778.47
2024-03-05T02:17:41.800Z,100787.72
2024-03-05T02:20:15.146Z,100780.47
2024-03-05T02:22:44.477Z,100784.16
2024-03-05T02:25:13.271Z,100785.56
2024-03-05T02:27:43.086Z,100782.91
2024-03-05T02:30:12.196Z,100775.41
2024-03-05T02:32:42.750Z,100779.69
2024-03-05T02:35:12.601Z,100783.94
2024-03-05T02:37:42.045Z,100776.25
2024-03-05T02:40:16.594Z,100769.28
2024-03-05T02:42:46.195Z,100772.72
2024-03-05T02:45:14.571Z,100770.97
2024-03-05T02:47:42.890Z,100775.31
2024-03-05T02:50:12.360Z,100774.53
2024-03-05T02:52:41.445Z,100774.53
2024-03-05T02:55:11.390Z,100774.56
2024-03-05T02:57:43.762Z,100766.88
2024-03-05T03:00:22.293Z,100768.59
2024-03-05T03:02:50.995Z,100770.31
2024-03-05T03:05:22.906Z,100771.16
2024-03-05T03:07:53.275Z,100775.41
2024-03-05T03:10:22.195Z,100769.37
2024-03-05T03:12:50.982Z,100765.03
2024-03-05T03:15:21.342Z,100765.81
2024-03-05T03:17:49.589Z,100763.22
2024-03-05T03:20:18.152Z,100760.56
2024-03-05T03:22:49.714Z,100758.06
2024-03-05T03:25:17.857Z,100758.00
2024-03-05T03:27:46.862Z,100757.94
2024-03-05T03:30:24.128Z,100754.63
2024-03-05T03:32:52.377Z,100766.06
2024-03-05T03:35:20.298Z,100760.47
2024-03-05T03:37:50.161Z,100766.22
2024-03-05T03:40:24.682Z,100768.53
2024-03-05T03:42:53.791Z,100772.16
2024-03-05T03:45:23.042Z,100769.78
2024-03-05T03:47:51.932Z,100775.94
2024-03-05T03:50:20.350Z,100766.09
2024-03-05T03:52:48.770Z,100768.38
2024-03-05T03:55:17.276Z,100771.22
2024-03-05T03:57:47.176Z,100760.81
2024-03-05T04:00:20.413Z,100766.56
2024-03-05T04:02:49.361Z,100769.53
2024-03-05T04:05:18.233Z,100770.22
2024-03-05T04:07:46.525Z,100760.66
2024-03-05T04:10:15.211Z,100778.34
2024-03-05T04:12:43.477Z,100769.66
2024-03-05T04:15:13.955Z,100775.13
2024-03-05T04:17:42.884Z,100775.06
2024-03-05T04:20:11.482Z,100782.13
2024-03-05T04:22:41.029Z,100781.50
2024-03-05T04:25:10.602Z,100777.13
2024-03-05T04:27:43.882Z,100770.56
2024-03-05T04:30:16.206Z,100774.56
2024-03-05T04:32:58.730Z,100773.31
2024-03-05T04:35:30.663Z,100774.03
2024-03-05T04:37:59.137Z,100771.50
2024-03-05T04:40:28.221Z,100769.34
2024-03-05T04:42:57.524Z,100774.91
2024-03-05T04:45:26.924Z,100772.53
2024-03-05T04:47:56.239Z,100777.62
2024-03-05T04:50:25.141Z,100780.41
2024-03-05T04:52:54.800Z,100776.78
2024-03-05T04:55:24.180Z,100784.81
2024-03-05T04:57:52.835Z,100786.63
2024-03-05T05:00:21.723Z,100789.94
2024-03-05T05:02:52.973Z,100783.97
2024-03-05T05:05:27.434Z,100792.50
2024-03-05T05:07:58.324Z,100788.94
2024-03-05T05:10:27.878Z,100793.31
2024-03-05T05:12:56.282Z,100795.81
2024-03-05T05:15:25.313Z,100784.47
2024-03-05T05:17:54.743Z,100795.72
2024-03-05T05:20:23.356Z,100800.88
2024-03-05T05:22:51.484Z,100789.63
2024-03-05T05:25:21.554Z,100799.81
2024-03-05T05:27:52.842Z,100802.41
2024-03-05T05:30:22.821Z,100810.53
2024-03-05T05:32:51.697Z,100791.28
2024-03-05T05:35:20.457Z,100806.06
2024-03-05T05:37:49.071Z,100807.41
2024-03-05T05:40:21.498Z,100796.22
2024-03-05T05:42:51.774Z,100805.25
2024-03-05T05:45:23.543Z,100804.47
2024-03-05T05:47:58.643Z,100811.31
2024-03-05T05:50:30.832Z,100809.00
2024-03-05T05:53:00.033Z,100806.91
2024-03-05T05:55:29.054Z,100812.81
2024-03-05T05:57:58.803Z,100816.03
2024-03-05T06:00:38.342Z,100807.63
2024-03-05T06:03:10.890Z,100815.94
2024-03-05T06:05:40.257Z,100826.78
2024-03-05T06:08:12.893Z,100822.81
2024-03-05T06:10:44.931Z,100817.00
2024-03-05T06:13:13.360Z,100820.44
2024-03-05T06:15:41.430Z,100827.75
2024-03-05T06:18:09.765Z,100830.63
2024-03-05T06:20:38.516Z,100825.41
2024-03-05T06:23:06.588Z,100829.06
2024-03-05T06:25:35.101Z,100831.38
2024-03-05T06:28:03.778Z,100838.41
2024-03-05T06:30:31.923Z,100833.63
2024-03-05T06:32:59.987Z,100838.47
2024-03-05T06:35:30.775Z,100844.53
2024-03-05T06:37:59.944Z,100835.75
2024-03-05T06:40:28.079Z,100839.53
2024-03-05T06:43:06.088Z,100841.31
2024-03-05T06:45:38.279Z,100822.97
2024-03-05T06:48:16.304Z,100847.25
2024-03-05T06:50:53.669Z,100840.16
2024-03-05T06:53:43.399Z,100840.41
2024-03-05T06:56:30.446Z,100852.75
2024-03-05T06:58:59.856Z,100856.16
2024-03-05T07:01:30.716Z,100851.94
2024-03-05T07:03:58.970Z,100860.37
2024-03-05T07:06:27.025Z,100858.03
2024-03-05T07:08:56.770Z,100857.34
2024-03-05T07:11:28.695Z,100867.03
2024-03-05T07:13:59.562Z,100863.78
2024-03-05T07:16:28.101Z,100860.22
2024-03-05T07:18:56.383Z,100863.09
2024-03-05T07:21:26.033Z,100876.97
2024-03-05T07:23:55.711Z,100869.94
2024-03-05T07:26:25.041Z,100876.03
2024-03-05T07:28:54.037Z,100872.16
2024-03-05T07:31:25.683Z,100876.53
2024-03-05T07:33:54.125Z,100871.66
2024-03-05T07:36:23.073Z,100878.50
2024-03-05T07:38:51.207Z,100877.50
2024-03-05T07:41:27.077Z,100871.97
2024-03-05T07:44:04.838Z,100873.22
2024-03-05T07:46:35.369Z,100848.50
2024-03-05T07:49:05.936Z,100879.34
2024-03-05T07:51:41.420Z,100880.87
2024-03-05T07:54:14.723Z,100880.59
2024-03-05T07:56:43.156Z,100872.22
2024-03-05T07:59:11.144Z,100878.25
2024-03-05T08:01:39.844Z,100874.94
2024-03-05T08:04:08.791Z,100864.31
2024-03-05T08:06:36.928Z,100881.47
2024-03-05T08:09:09.209Z,100881.50
2024-03-05T08:11:37.918Z,100886.97
2024-03-05T08:14:09.290Z,100886.19
2024-03-05T08:16:40.513Z,100886.62
2024-03-05T08:19:09.100Z,100885.00
2024-03-05T08:21:37.690Z,100890.00
2024-03-05T08:24:06.850Z,100889.88
2024-03-05T08:26:34.906Z,100897.00
2024-03-05T08:29:03.519Z,100901.94
2024-03-05T08:31:31.440Z,100902.13
2024-03-05T08:34:01.530Z,100899.56
2024-03-05T08:36:32.333Z,100905.38
2024-03-05T08:39:00.252Z,100904.44
2024-03-05T08:41:28.543Z,100902.50
2024-03-05T08:43:56.986Z,100905.19
2024-03-05T08:46:24.952Z,100899.91
2024-03-05T08:48:54.084Z,100905.69
2024-03-05T08:51:22.381Z,100910.25
2024-03-05T08:53:50.597Z,100902.66
2024-03-05T08:56:18.827Z,100910.72
2024-03-05T08:58:47.389Z,100916.44
2024-03-05T09:01:15.408Z,100898.22
2024-03-05T09:03:43.646Z,100916.03
2024-03-05T09:06:12.352Z,100918.31
2024-03-05T09:08:42.218Z,100912.56
2024-03-05T09:11:10.641Z,100908.37
2024-03-05T09:13:45.350Z,100919.31
2024-03-05T09:16:16.898Z,100925.37
2024-03-05T09:18:45.122Z,100918.97
2024-03-05T09:21:13.587Z,100922.56
2024-03-05T09:23:41.772Z,100919.31
2024-03-05T09:26:11.873Z,100922.16
2024-03-05T09:28:40.010Z,100922.03
2024-03-05T09:31:08.089Z,100923.97
2024-03-05T09:33:36.328Z,100924.66
2024-03-05T09:36:06.403Z,100931.84
2024-03-05T09:38:35.490Z,100935.91
2024-03-05T09:41:09.531Z,100940.03
2024-03-05T09:43:43.307Z,100937.47
2024-03-05T09:46:13.620Z,100924.91
2024-03-05T09:48:42.044Z,100929.13
2024-03-05T09:51:11.507Z,100939.41
2024-03-05T09:53:40.510Z,100945.75
2024-03-05T09:56:08.851Z,100935.69
2024-03-05T09:58:41.014Z,100937.66
2024-03-05T10:01:11.951Z,100939.72
2024-03-05T10:03:40.673Z,100940.81
2024-03-05T10:06:08.963Z,100936.59
2024-03-05T10:08:37.258Z,100946.56
2024-03-05T10:11:06.672Z,100946.03
2024-03-05T10:13:38.860Z,100946.53
2024-03-05T10:16:26.657Z,100949.75
2024-03-05T10:18:54.835Z,100956.66
2024-03-05T10:21:25.593Z,100946.09
2024-03-05T10:24:01.895Z,100954.84
2024-03-05T10:26:31.709Z,100947.53
2024-03-05T10:29:10.638Z,100956.94
2024-03-05T10:31:48.445Z,100962.25
2024-03-05T10:34:20.508Z,100966.53
2024-03-05T10:36:49.174Z,100965.22
2024-03-05T10:39:18.950Z,100971.69
2024-03-05T10:41:54.019Z,100970.59
2024-03-05T10:44:23.158Z,100972.37
2024-03-05T10:46:54.153Z,100973.03
2024-03-05T10:49:24.033Z,100970.91
2024-03-05T10:51:55.313Z,100967.19
2024-03-05T10:54:24.004Z,100979.22
2024-03-05T10:56:53.814Z,100979.50
2024-03-05T10:59:34.348Z,100979.41
2024-03-05T11:02:03.907Z,100970.09
2024-03-05T11:04:34.234Z,100975.22
2024-03-05T11:07:07.272Z,100977.66
2024-03-05T11:09:37.473Z,100988.00
2024-03-05T11:12:08.771Z,100979.03
2024-03-05T11:14:38.289Z,100978.72
2024-03-05T11:17:11.837Z,100990.41
2024-03-05T11:19:45.036Z,100983.22
2024-03-05T11:22:25.179Z,100974.12
2024-03-05T11:25:02.759Z,100977.75
2024-03-05T11:27:32.232Z,100974.34
2024-03-05T11:30:13.822Z,100975.87
2024-03-05T11:32:45.239Z,100968.53
2024-03-05T11:35:15.038Z,100976.53
2024-03-05T11:37:53.032Z,100979.78
2024-03-05T11:40:29.932Z,100977.00
2024-03-05T11:42:59.146Z,100978.06
2024-03-05T11:45:47.494Z,100981.41
2024-03-05T11:48:18.098Z,100977.66
2024-03-05T11:50:52.685Z,100976.84
2024-03-05T11:53:21.467Z,100972.37
2024-03-05T11:55:53.990Z,100975.59
2024-03-05T11:58:27.378Z,100984.16
2024-03-05T12:01:04.265Z,100969.13
2024-03-05T12:03:32.934Z,100987.00
2024-03-05T12:06:01.841Z,100981.69
2024-03-05T12:08:30.005Z,100974.72
2024-03-05T12:11:05.750Z,100985.25
2024-03-05T12:13:35.029Z,100986.19
2024-03-05T12:16:15.339Z,100986.66
2024-03-05T12:18:43.824Z,100988.12
2024-03-05T12:21:12.676Z,100991.94
2024-03-05T12:23:43.089Z,100994.06
2024-03-05T12:26:13.216Z,100988.50
2024-03-05T12:28:42.503Z,100995.16
2024-03-05T12:31:11.004Z,100995.97
2024-03-05T12:33:39.149Z,100998.47
2024-03-05T12:36:08.890Z,101000.94
2024-03-05T12:38:37.048Z,100998.63
2024-03-05T12:41:05.525Z,100999.63
2024-03-05T12:43:35.610Z,101001.84
2024-03-05T12:46:08.941Z,100998.00
2024-03-05T12:48:37.504Z,101001.78
2024-03-05T12:51:05.908Z,101006.03
2024-03-05T12:53:33.850Z,101003.56
2024-03-05T12:56:03.356Z,101009.53
2024-03-05T12:58:44.583Z,100996.81
2024-03-05T13:01:16.899Z,101004.34
2024-03-05T13:03:45.605Z,101008.31
2024-03-05T13:06:14.194Z,101005.78
2024-03-05T13:08:42.400Z,101013.13
2024-03-05T13:11:10.401Z,101004.22
2024-03-05T13:13:39.132Z,101012.16
2024-03-05T13:16:07.353Z,101007.78
2024-03-05T13:18:35.823Z,101012.03
2024-03-05T13:21:07.622Z,101013.69
2024-03-05T13:23:36.619Z,101011.47
2024-03-05T13:26:05.865Z,101013.91
2024-03-05T13:28:34.192Z,101016.75
2024-03-05T13:31:02.415Z,101005.25
2024-03-05T13:33:30.899Z,101021.34
2024-03-05T13:35:59.657Z,101012.59
2024-03-05T13:38:27.666Z,101020.31
2024-03-05T13:40:56.942Z,101018.12
2024-03-05T13:43:25.956Z,101020.56
2024-03-05T13:45:54.403Z,101027.81
2024-03-05T13:48:23.009Z,101024.66
2024-03-05T13:50:53.966Z,101013.41
2024-03-05T13:53:23.347Z,101026.28
2024-03-05T13:55:58.271Z,101028.44
2024-03-05T13:58:26.809Z,101022.16
2024-03-05T14:00:54.744Z,101024.34
2024-03-05T14:03:22.985Z,101028.97
2024-03-05T14:05:51.562Z,101027.97
2024-03-05T14:08:19.815Z,101033.69
2024-03-05T14:10:48.507Z,101024.75
2024-03-05T14:13:19.289Z,101037.19
2024-03-05T14:15:50.380Z,101039.94
2024-03-05T14:18:18.570Z,101020.97
2024-03-05T14:20:46.470Z,101039.31
2024-03-05T14:23:15.171Z,101040.59
2024-03-05T14:25:50.406Z,101041.97
2024-03-05T14:28:18.711Z,101041.66
2024-03-05T14:30:47.255Z,101048.09
2024-03-05T14:33:16.272Z,101035.78
2024-03-05T14:35:44.383Z,101056.31
2024-03-05T14:38:18.106Z,101051.09
2024-03-05T14:40:47.248Z,101048.91
2024-03-05T14:43:15.835Z,101054.16
2024-03-05T14:45:43.997Z,101040.09
2024-03-05T14:48:12.012Z,101062.34
2024-03-05T14:50:40.590Z,101065.91
2024-03-05T14:53:08.948Z,101072.91
2024-03-05T14:55:37.158Z,101073.19
2024-03-05T14:58:06.336Z,101074.84
2024-03-05T15:00:34.285Z,101072.47
2024-03-05T15:03:03.331Z,101075.53
2024-03-05T15:05:32.638Z,101080.91
2024-03-05T15:08:00.971Z,101088.59
2024-03-05T15:10:29.987Z,101063.25
2024-03-05T15:12:58.914Z,101088.00
2024-03-05T15:15:27.005Z,101088.06
2024-03-05T15:17:56.213Z,101091.22
2024-03-05T15:20:25.259Z,101096.47
2024-03-05T15:22:53.959Z,101096.94
2024-03-05T15:25:22.578Z,101096.94
2024-03-05T15:30:22.592Z,101089.25
2024-03-05T15:32:56.203Z,101091.88
2024-03-05T15:35:25.131Z,101106.72
2024-03-05T15:37:53.676Z,101115.31
2024-03-05T15:40:23.929Z,101101.81
2024-03-05T15:42:57.756Z,101109.22
2024-03-05T15:45:30.685Z,101115.41
2024-03-05T15:48:00.437Z,101118.00
2024-03-05T15:50:32.415Z,101122.16
2024-03-05T15:53:02.700Z,101126.19
2024-03-05T15:55:31.627Z,101137.03
2024-03-05T15:58:03.436Z,101138.78
2024-03-05T16:00:36.845Z,101143.16
2024-03-05T16:03:11.375Z,101134.63
2024-03-05T16:05:55.354Z,101147.34
2024-03-05T16:08:32.732Z,101150.03
2024-03-05T16:11:00.991Z,101156.91
2024-03-05T16:13:32.293Z,101153.53
2024-03-05T16:16:02.812Z,101157.78
2024-03-05T16:18:30.867Z,101152.66
2024-03-05T16:21:03.331Z,101162.72
2024-03-05T16:23:31.416Z,101169.84
2024-03-05T16:25:59.616Z,101169.81
2024-03-05T16:28:27.750Z,101170.66
2024-03-05T16:30:56.433Z,101178.34
2024-03-05T16:33:26.399Z,101175.81
2024-03-05T16:35:54.634Z,101183.56
2024-03-05T16:38:23.955Z,101174.97
2024-03-05T16:40:54.557Z,101185.25
2024-03-05T16:43:23.747Z,101183.53
2024-03-05T16:45:53.685Z,101192.03
2024-03-05T16:48:22.768Z,101190.41
2024-03-05T16:50:51.257Z,101193.81
2024-03-05T16:53:19.313Z,101200.66
2024-03-05T16:55:49.152Z,101207.53
2024-03-05T16:58:19.583Z,101202.34
2024-03-05T17:00:56.563Z,101217.78
2024-03-05T17:03:30.229Z,101209.72
2024-03-05T17:06:03.216Z,101214.25
2024-03-05T17:08:31.719Z,101219.53
2024-03-05T17:11:00.392Z,101204.88
2024-03-05T17:13:31.304Z,101216.94
2024-03-05T17:16:05.183Z,101220.28
2024-03-05T17:18:33.664Z,101234.09
2024-03-05T17:21:03.048Z,101222.06
2024-03-05T17:23:33.811Z,101221.09
2024-03-05T17:26:05.619Z,101238.38
2024-03-05T17:28:34.504Z,101226.34
2024-03-05T17:31:02.996Z,101228.97
2024-03-05T17:33:32.425Z,101233.19
2024-03-05T17:36:00.673Z,101240.03
2024-03-05T17:38:31.754Z,101238.34
2024-03-05T17:41:02.361Z,101244.34
2024-03-05T17:43:31.988Z,101228.88
2024-03-05T17:46:00.667Z,101240.81
2024-03-05T17:48:29.593Z,101234.94
2024-03-05T17:50:59.463Z,101235.81
2024-03-05T17:53:27.285Z,101237.44
2024-03-05T17:55:57.366Z,101229.78
2024-03-05T17:58:25.930Z,101240.06
2024-03-05T18:00:55.271Z,101245.12
2024-03-05T18:03:24.646Z,101257.88
2024-03-05T18:05:54.227Z,101252.03
2024-03-05T18:08:22.556Z,101246.94
2024-03-05T18:10:51.395Z,101257.22
2024-03-05T18:13:20.484Z,101253.69
2024-03-05T18:15:50.255Z,101258.88
2024-03-05T18:18:20.052Z,101265.78
2024-03-05T18:20:48.528Z,101261.53
2024-03-05T18:23:17.089Z,101252.06
2024-03-05T18:25:48.483Z,101256.25
2024-03-05T18:28:21.974Z,101242.63
2024-03-05T18:30:51.247Z,101258.62
2024-03-05T18:33:20.389Z,101259.63
2024-03-05T18:35:48.803Z,101258.84
2024-03-05T18:38:25.044Z,101262.97
2024-03-05T18:41:01.483Z,101263.69
2024-03-05T18:43:31.893Z,101265.66
2024-03-05T18:46:02.388Z,101263.91
2024-03-05T18:48:31.688Z,101262.06
2024-03-05T18:51:02.527Z,101262.19
2024-03-05T18:53:39.500Z,101256.94
2024-03-05T18:56:14.078Z,101262.28
2024-03-05T18:58:43.046Z,101263.94
2024-03-05T19:01:12.206Z,101264.84
2024-03-05T19:03:40.864Z,101273.50
2024-03-05T19:06:09.082Z,101252.00
2024-03-05T19:08:39.928Z,101260.56
2024-03-05T19:11:10.995Z,101269.16
2024-03-05T19:13:39.832Z,101277.69
2024-03-05T19:16:08.109Z,101282.06
2024-03-05T19:18:36.332Z,101282.81
2024-03-05T19:21:04.901Z,101274.16
2024-03-05T19:23:33.323Z,101275.84
2024-03-05T19:26:01.893Z,101269.75
2024-03-05T19:28:34.125Z,101270.53
2024-03-05T19:31:04.034Z,101271.31
2024-03-05T19:33:32.725Z,101265.47
2024-03-05T19:36:04.391Z,101262.84
2024-03-05T19:38:33.467Z,101261.19
2024-03-05T19:41:03.759Z,101264.66
2024-03-05T19:43:37.356Z,101257.00
2024-03-05T19:46:05.935Z,101274.03
2024-03-05T19:48:35.085Z,101271.41
2024-03-05T19:51:03.935Z,101268.06
2024-03-05T19:53:31.846Z,101264.66
2024-03-05T19:56:00.392Z,101268.97
2024-03-05T19:58:28.614Z,101272.41
2024-03-05T20:00:57.275Z,101270.69
2024-03-05T20:03:26.283Z,101279.25
2024-03-05T20:05:54.183Z,101269.84
2024-03-05T20:08:22.151Z,101270.69
2024-03-05T20:10:51.665Z,101271.53
2024-03-05T20:13:19.824Z,101269.91
2024-03-05T20:15:48.230Z,101269.06
2024-03-05T20:18:16.574Z,101274.13
2024-03-05T20:20:44.482Z,101258.78
2024-03-05T20:23:13.039Z,101275.91
2024-03-05T20:25:43.174Z,101279.34
2024-03-05T20:28:14.413Z,101264.78
2024-03-05T20:30:47.386Z,101276.81
2024-03-05T20:33:15.928Z,101279.38
2024-03-05T20:35:44.719Z,101279.44
2024-03-05T20:38:13.496Z,101286.28
2024-03-05T20:40:43.141Z,101280.31
2024-03-05T20:43:12.626Z,101282.88
2024-03-05T20:45:40.541Z,101283.75
2024-03-05T20:48:08.762Z,101282.91
2024-03-05T20:50:37.446Z,101284.63
2024-03-05T20:53:06.761Z,101283.75
2024-03-05T20:55:34.987Z,101287.19
2024-03-05T20:58:05.661Z,101284.63
2024-03-05T21:00:33.706Z,101278.63
2024-03-05T21:03:01.884Z,101277.81
2024-03-05T21:05:32.089Z,101284.66
2024-03-05T21:08:00.113Z,101292.34
2024-03-05T21:10:28.749Z,101268.34
2024-03-05T21:12:57.293Z,101290.66
2024-03-05T21:15:26.436Z,101288.06
2024-03-05T21:17:54.455Z,101290.63
2024-03-05T21:20:22.913Z,101291.50
2024-03-05T21:22:50.947Z,101292.34
2024-03-05T21:25:19.561Z,101286.34
2024-03-05T21:27:48.904Z,101292.34
2024-03-05T21:30:18.116Z,101294.91
2024-03-05T21:32:45.951Z,101294.91
2024-03-05T21:35:14.598Z,101285.50
2024-03-05T21:37:43.129Z,101290.66
2024-03-05T21:40:15.051Z,101299.22
2024-03-05T21:42:45.483Z,101293.19
2024-03-05T21:45:16.484Z,101304.34
2024-03-05T21:47:45.477Z,101300.91
2024-03-05T21:50:14.245Z,101297.47
2024-03-05T21:52:46.598Z,101297.47
2024-03-05T21:55:16.735Z,101299.19
2024-03-05T21:57:45.051Z,101297.47
2024-03-05T22:00:13.789Z,101297.47
2024-03-05T22:02:43.006Z,101304.34
2024-03-05T22:05:12.823Z,101300.03
2024-03-05T22:07:42.182Z,101295.69
2024-03-05T22:10:11.182Z,101298.31
2024-03-05T22:12:39.585Z,101298.34
2024-03-05T22:15:09.567Z,101302.59
2024-03-05T22:17:37.857Z,101297.50
2024-03-05T22:20:10.698Z,101294.91
2024-03-05T22:22:40.393Z,101306.91
2024-03-05T22:25:08.880Z,101303.47
2024-03-05T22:27:37.027Z,101305.19
2024-03-05T22:30:09.090Z,101306.88
2024-03-05T22:32:38.086Z,101302.59
2024-03-05T22:35:11.330Z,101307.72
2024-03-05T22:37:40.768Z,101312.03
2024-03-05T22:40:11.789Z,101315.47
2024-03-05T22:42:40.835Z,101315.47
2024-03-05T22:45:10.595Z,101317.19
2024-03-05T22:47:38.614Z,101318.03
2024-03-05T22:50:10.929Z,101324.84
2024-03-05T22:52:40.203Z,101317.16
2024-03-05T22:55:10.119Z,101321.44
2024-03-05T22:57:37.983Z,101318.03
2024-03-05T23:00:24.401Z,101324.87
2024-03-05T23:02:53.808Z,101330.84
2024-03-05T23:05:22.514Z,101323.12
2024-03-05T23:07:52.489Z,101331.69
2024-03-05T23:10:21.193Z,101317.91
2024-03-05T23:12:49.617Z,101318.00
2024-03-05T23:15:17.530Z,101318.81
2024-03-05T23:17:45.627Z,101328.19
2024-03-05T23:20:14.199Z,101324.87
2024-03-05T23:22:42.538Z,101320.53
2024-03-05T23:25:11.733Z,101326.50
2024-03-05T23:27:44.173Z,101325.72
2024-03-05T23:30:13.718Z,101321.41
2024-03-05T23:32:43.778Z,101316.28
2024-03-05T23:35:12.433Z,101312.88
2024-03-05T23:37:43.395Z,101317.19
2024-03-05T23:40:12.729Z,101308.59
2024-03-05T23:42:41.287Z,101319.69
2024-03-05T23:45:09.598Z,101319.69
2024-03-05T23:47:37.860Z,101313.62
2024-03-05T23:50:07.288Z,101322.16
2024-03-05T23:52:35.271Z,101323.06
2024-03-05T23:55:07.799Z,101329.09
2024-03-05T23:57:36.340Z,101326.50
